Time;durP1;ratioP1;P1;durP2;ratioP2;P2;SDS_P1;SDS_P2;PMS_P1;PMS_P2;Temp;Humidity;BMP_temperature;BMP_pressure;BME280_temperature;BME280_humidity;BME280_pressure;Samples;Min_cycle;Max_cycle;Signal;HPM_P1;HPM_P2
2024/01/24 00:01:14;;;;;;;3.43;1.50;;;;;;;;;;5052875;28;20448;-81
2024/01/24 00:03:40;;;;;;;4.55;1.48;;;;;;;;;;5052739;28;20896;-81
2024/01/24 00:06:06;;;;;;;3.80;1.50;;;;;;;;;;5052581;28;20421;-81
2024/01/24 00:08:33;;;;;;;5.93;1.80;;;;;;;;;;5052253;28;20378;-81
2024/01/24 00:11:01;;;;;;;4.03;1.48;;;;;;;;;;5052466;28;20396;-82
2024/01/24 00:13:27;;;;;;;3.95;1.70;;;;;;;;;;5052307;28;20731;-81
2024/01/24 00:15:53;;;;;;;3.88;1.42;;;;;;;;;;5052981;28;20831;-81
2024/01/24 00:18:19;;;;;;;4.10;1.20;;;;;;;;;;5052151;28;20400;-81
2024/01/24 00:20:45;;;;;;;1.88;1.23;;;;;;;;;;5052128;28;20378;-81
2024/01/24 00:23:11;;;;;;;2.70;1.08;;;;;;;;;;5052300;28;20377;-82
2024/01/24 00:25:37;;;;;;;2.13;0.90;;;;;;;;;;5052128;28;20743;-81
2024/01/24 00:28:05;;;;;;;3.22;1.17;;;;;;;;;;5052058;28;20405;-82
2024/01/24 00:30:33;;;;;;;3.60;1.25;;;;;;;;;;5051908;28;20413;-81
2024/01/24 00:33:01;;;;;;;3.60;1.13;;;;;;;;;;5052704;28;20396;-81
2024/01/24 00:35:27;;;;;;;3.57;1.10;;;;;;;;;;5052351;28;20413;-81
2024/01/24 00:37:53;;;;;;;2.28;0.82;;;;;;;;;;5062053;28;20380;-81
2024/01/24 00:40:19;;;;;;;3.30;1.05;;;;;;;;;;5072254;28;20400;-81
2024/01/24 00:42:45;;;;;;;2.73;1.10;;;;;;;;;;5072536;28;20927;-79
2024/01/24 00:45:12;;;;;;;3.25;0.90;;;;;;;;;;5072267;28;20486;-81
2024/01/24 00:47:39;;;;;;;2.80;1.00;;;;;;;;;;5072250;28;20372;-82
2024/01/24 00:50:05;;;;;;;3.07;1.07;;;;;;;;;;5072365;28;20834;-81
2024/01/24 00:52:31;;;;;;;2.47;1.13;;;;;;;;;;5072074;28;20437;-81
2024/01/24 00:54:57;;;;;;;3.55;1.42;;;;;;;;;;5072329;28;20730;-81
2024/01/24 00:57:23;;;;;;;3.00;0.90;;;;;;;;;;5071810;28;20380;-82
2024/01/24 00:59:49;;;;;;;2.35;1.10;;;;;;;;;;5071676;28;20439;-81
2024/01/24 01:02:16;;;;;;;2.67;0.90;;;;;;;;;;5071866;28;20383;-81
2024/01/24 01:04:43;;;;;;;2.47;1.10;;;;;;;;;;5071194;28;20850;-81
2024/01/24 01:07:09;;;;;;;3.08;1.10;;;;;;;;;;5070814;28;20376;-81
2024/01/24 01:09:38;;;;;;;3.50;1.05;;;;;;;;;;5069798;28;20459;-81
2024/01/24 01:12:04;;;;;;;2.85;1.27;;;;;;;;;;5071473;28;20371;-81
2024/01/24 01:14:30;;;;;;;1.80;0.93;;;;;;;;;;5071422;28;20506;-81
2024/01/24 01:16:56;;;;;;;2.60;1.00;;;;;;;;;;5071461;28;20494;-81
2024/01/24 01:19:22;;;;;;;3.65;1.05;;;;;;;;;;5071246;28;20407;-81
2024/01/24 01:21:48;;;;;;;1.90;0.97;;;;;;;;;;5071303;28;20896;-81
2024/01/24 01:24:14;;;;;;;2.42;1.08;;;;;;;;;;5071174;28;20402;-81
2024/01/24 01:26:40;;;;;;;3.03;1.10;;;;;;;;;;5071008;28;20376;-81
2024/01/24 01:29:06;;;;;;;3.25;1.02;;;;;;;;;;5070975;28;20502;-81
2024/01/24 01:31:32;;;;;;;2.75;1.00;;;;;;;;;;5071470;28;20384;-81
2024/01/24 01:34:00;;;;;;;2.33;0.90;;;;;;;;;;5067898;28;20381;-81
2024/01/24 01:36:26;;;;;;;3.47;1.00;;;;;;;;;;5054705;28;20413;-82
2024/01/24 01:38:52;;;;;;;2.97;1.20;;;;;;;;;;5054622;28;20405;-81
2024/01/24 01:41:18;;;;;;;4.00;1.10;;;;;;;;;;5054752;28;20461;-81
2024/01/24 01:43:45;;;;;;;3.35;0.90;;;;;;;;;;5054843;28;20839;-81
2024/01/24 01:46:12;;;;;;;3.10;0.95;;;;;;;;;;5054802;28;20468;-81
2024/01/24 01:48:38;;;;;;;3.50;1.10;;;;;;;;;;5037286;28;20484;-81
2024/01/24 01:51:05;;;;;;;4.35;1.10;;;;;;;;;;5054845;28;20377;-81
2024/01/24 01:53:38;;;;;;;2.47;1.20;;;;;;;;;;5054675;28;20378;-81
2024/01/24 01:56:04;;;;;;;1.80;0.80;;;;;;;;;;5054652;28;20386;-81
2024/01/24 01:58:30;;;;;;;2.70;0.80;;;;;;;;;;5054548;28;20736;-81
2024/01/24 02:00:57;;;;;;;2.63;0.98;;;;;;;;;;5054539;28;20436;-81
2024/01/24 02:03:23;;;;;;;2.83;0.85;;;;;;;;;;5036584;28;20408;-81
2024/01/24 02:05:49;;;;;;;3.10;1.02;;;;;;;;;;5054491;28;20454;-81
2024/01/24 02:08:15;;;;;;;2.57;0.93;;;;;;;;;;5054290;28;20386;-81
2024/01/24 02:10:41;;;;;;;4.03;1.20;;;;;;;;;;5054243;28;20424;-81
2024/01/24 02:13:07;;;;;;;2.42;0.95;;;;;;;;;;5054316;28;20812;-81
2024/01/24 02:15:33;;;;;;;2.28;0.90;;;;;;;;;;5054348;28;20442;-82
2024/01/24 02:17:59;;;;;;;2.85;1.13;;;;;;;;;;5053907;28;20839;-82
2024/01/24 02:20:26;;;;;;;2.00;0.90;;;;;;;;;;5054162;28;20740;-81
2024/01/24 02:22:52;;;;;;;2.08;0.90;;;;;;;;;;5036354;28;20389;-81
2024/01/24 02:25:17;;;;;;;1.90;0.90;;;;;;;;;;5054578;28;20468;-81
2024/01/24 02:27:43;;;;;;;2.53;0.93;;;;;;;;;;5054284;28;20389;-81
2024/01/24 02:30:10;;;;;;;2.83;1.00;;;;;;;;;;5055283;28;20389;-81
2024/01/24 02:32:36;;;;;;;1.77;0.88;;;;;;;;;;5074098;28;20442;-82
2024/01/24 02:35:02;;;;;;;4.37;1.00;;;;;;;;;;5074286;28;20873;-80
2024/01/24 02:37:27;;;;;;;3.92;0.85;;;;;;;;;;5074053;28;20384;-81
2024/01/24 02:39:53;;;;;;;2.30;0.90;;;;;;;;;;5074148;28;20484;-82
2024/01/24 02:42:19;;;;;;;2.33;0.90;;;;;;;;;;5073613;28;20887;-81
2024/01/24 02:44:45;;;;;;;2.55;1.00;;;;;;;;;;5073738;28;20475;-81
2024/01/24 02:47:11;;;;;;;2.00;0.90;;;;;;;;;;5073900;28;20924;-81
2024/01/24 02:49:38;;;;;;;2.90;1.00;;;;;;;;;;5073681;28;20461;-81
2024/01/24 02:52:05;;;;;;;1.98;0.80;;;;;;;;;;5073817;28;20392;-82
2024/01/24 02:54:31;;;;;;;2.65;1.00;;;;;;;;;;5074524;28;20375;-81
2024/01/24 02:56:56;;;;;;;2.10;0.80;;;;;;;;;;5073894;28;20429;-82
2024/01/24 02:59:23;;;;;;;1.83;0.70;;;;;;;;;;5073398;28;20433;-81
2024/01/24 03:01:48;;;;;;;3.17;1.13;;;;;;;;;;5068425;28;20979;-82
2024/01/24 03:04:14;;;;;;;1.58;0.80;;;;;;;;;;5063030;28;20468;-81
2024/01/24 03:06:41;;;;;;;1.40;0.70;;;;;;;;;;5070026;28;20392;-82
2024/01/24 03:09:07;;;;;;;1.97;0.80;;;;;;;;;;5063392;28;20382;-82
2024/01/24 03:11:33;;;;;;;2.38;0.98;;;;;;;;;;5053486;28;20435;-81
2024/01/24 03:13:59;;;;;;;2.00;0.80;;;;;;;;;;5053672;28;20476;-81
2024/01/24 03:16:25;;;;;;;2.00;0.80;;;;;;;;;;5053607;28;20424;-82
2024/01/24 03:18:51;;;;;;;1.90;0.80;;;;;;;;;;5053192;28;20481;-81
2024/01/24 03:21:18;;;;;;;1.80;0.80;;;;;;;;;;5053497;28;20712;-81
2024/01/24 03:23:44;;;;;;;2.57;0.97;;;;;;;;;;5053468;28;20624;-82
2024/01/24 03:26:13;;;;;;;1.40;0.73;;;;;;;;;;5053357;28;20373;-81
2024/01/24 03:28:39;;;;;;;1.95;0.90;;;;;;;;;;5053324;28;20413;-82
2024/01/24 03:31:04;;;;;;;2.10;0.95;;;;;;;;;;5053449;28;20385;-82
2024/01/24 03:33:30;;;;;;;1.90;0.80;;;;;;;;;;5053091;28;20444;-81
2024/01/24 03:35:57;;;;;;;1.38;0.70;;;;;;;;;;5053404;28;20390;-82
2024/01/24 03:38:23;;;;;;;1.88;0.70;;;;;;;;;;5052947;28;20925;-81
2024/01/24 03:40:49;;;;;;;3.10;0.90;;;;;;;;;;5053369;28;20458;-82
2024/01/24 03:43:15;;;;;;;2.38;0.98;;;;;;;;;;5053422;28;20377;-82
2024/01/24 03:45:41;;;;;;;1.25;0.68;;;;;;;;;;5055375;28;20439;-82
2024/01/24 03:48:07;;;;;;;2.60;0.80;;;;;;;;;;5053358;28;20372;-82
2024/01/24 03:50:34;;;;;;;2.33;1.00;;;;;;;;;;5053236;28;20727;-82
2024/01/24 03:53:02;;;;;;;1.73;0.73;;;;;;;;;;5054027;28;20404;-81
2024/01/24 03:55:29;;;;;;;2.60;0.90;;;;;;;;;;5052523;28;20385;-82
2024/01/24 03:57:55;;;;;;;2.75;0.95;;;;;;;;;;5053149;28;20424;-82
2024/01/24 04:00:21;;;;;;;2.25;0.77;;;;;;;;;;5053029;28;20962;-82
2024/01/24 04:02:47;;;;;;;2.28;0.60;;;;;;;;;;5052973;28;20412;-82
2024/01/24 04:05:14;;;;;;;1.63;0.80;;;;;;;;;;5053286;28;20401;-81
2024/01/24 04:07:40;;;;;;;2.28;0.93;;;;;;;;;;5052588;28;20412;-82
2024/01/24 04:10:07;;;;;;;1.83;0.85;;;;;;;;;;5052927;28;20389;-82
2024/01/24 04:12:33;;;;;;;1.67;0.75;;;;;;;;;;5052927;28;20378;-82
2024/01/24 04:14:59;;;;;;;1.75;0.70;;;;;;;;;;5052924;28;20389;-82
2024/01/24 04:17:25;;;;;;;2.43;1.00;;;;;;;;;;5051656;28;20396;-82
2024/01/24 04:19:51;;;;;;;1.92;0.80;;;;;;;;;;5051857;28;20822;-82
2024/01/24 04:22:17;;;;;;;3.08;0.93;;;;;;;;;;5052252;28;20409;-82
2024/01/24 04:24:44;;;;;;;2.20;0.90;;;;;;;;;;5052029;28;20420;-82
2024/01/24 04:27:10;;;;;;;1.00;0.60;;;;;;;;;;5052217;28;20376;-82
2024/01/24 04:29:36;;;;;;;2.47;0.80;;;;;;;;;;5065208;28;20496;-82
2024/01/24 04:32:03;;;;;;;1.63;0.90;;;;;;;;;;5072004;28;20375;-82
2024/01/24 04:34:28;;;;;;;1.38;0.88;;;;;;;;;;5072095;28;20372;-82
2024/01/24 04:36:54;;;;;;;1.70;0.70;;;;;;;;;;5071691;28;20394;-80
2024/01/24 04:39:21;;;;;;;2.20;0.73;;;;;;;;;;5071761;28;20491;-79
2024/01/24 04:41:47;;;;;;;1.73;0.73;;;;;;;;;;5071794;28;20470;-82
2024/01/24 04:44:14;;;;;;;1.70;0.70;;;;;;;;;;5071621;28;20804;-81
2024/01/24 04:46:40;;;;;;;2.45;0.77;;;;;;;;;;5071610;28;21150;-82
2024/01/24 04:49:07;;;;;;;2.28;0.73;;;;;;;;;;5058408;28;20918;-82
2024/01/24 04:51:33;;;;;;;1.40;0.70;;;;;;;;;;5058233;28;20771;-82
2024/01/24 04:53:59;;;;;;;1.45;0.60;;;;;;;;;;5069530;28;20959;-82
2024/01/24 04:56:26;;;;;;;2.30;0.80;;;;;;;;;;5072010;28;20411;-82
2024/01/24 04:58:51;;;;;;;0.80;0.50;;;;;;;;;;5072104;28;20411;-82
2024/01/24 05:01:17;;;;;;;1.33;0.80;;;;;;;;;;5071832;28;20387;-82
2024/01/24 05:03:44;;;;;;;2.38;0.70;;;;;;;;;;5072024;28;20501;-82
2024/01/24 05:06:11;;;;;;;2.58;0.80;;;;;;;;;;5073534;28;20379;-81
2024/01/24 05:08:37;;;;;;;2.35;0.90;;;;;;;;;;5075832;28;20380;-81
2024/01/24 05:11:03;;;;;;;2.45;0.80;;;;;;;;;;5075438;28;20376;-82
2024/01/24 05:13:29;;;;;;;3.03;0.98;;;;;;;;;;5076028;28;20372;-82
2024/01/24 05:15:55;;;;;;;1.58;0.65;;;;;;;;;;5057549;28;20453;-82
2024/01/24 05:18:21;;;;;;;1.98;0.85;;;;;;;;;;5075846;28;20474;-83
2024/01/24 05:20:47;;;;;;;1.50;0.80;;;;;;;;;;5075734;28;20456;-82
2024/01/24 05:23:13;;;;;;;2.35;0.80;;;;;;;;;;5075335;28;20379;-82
2024/01/24 05:25:42;;;;;;;1.70;0.82;;;;;;;;;;5076125;28;20383;-82
2024/01/24 05:28:09;;;;;;;2.17;0.88;;;;;;;;;;5074993;28;20486;-82
2024/01/24 05:30:35;;;;;;;1.98;0.80;;;;;;;;;;5076171;28;20760;-82
2024/01/24 05:33:01;;;;;;;1.45;0.73;;;;;;;;;;5075682;28;20877;-82
2024/01/24 05:35:27;;;;;;;1.95;0.70;;;;;;;;;;5075349;28;20384;-82
2024/01/24 05:37:53;;;;;;;2.05;0.80;;;;;;;;;;5075595;28;20459;-81
2024/01/24 05:40:19;;;;;;;1.80;0.88;;;;;;;;;;5075673;28;20408;-81
2024/01/24 05:42:45;;;;;;;3.05;0.98;;;;;;;;;;5075490;28;20368;-81
2024/01/24 05:45:11;;;;;;;1.88;0.80;;;;;;;;;;5075742;28;20717;-81
2024/01/24 05:47:37;;;;;;;2.45;0.90;;;;;;;;;;5076060;28;20417;-81
2024/01/24 05:50:03;;;;;;;1.25;0.80;;;;;;;;;;5075515;28;20376;-81
2024/01/24 05:52:29;;;;;;;1.83;0.90;;;;;;;;;;5056265;28;20471;-80
2024/01/24 05:54:55;;;;;;;1.83;1.00;;;;;;;;;;5057266;28;20428;-81
2024/01/24 05:57:24;;;;;;;2.15;1.00;;;;;;;;;;5055710;28;20389;-81
2024/01/24 05:59:50;;;;;;;2.63;1.08;;;;;;;;;;5055054;28;20405;-81
2024/01/24 06:02:16;;;;;;;2.47;1.20;;;;;;;;;;5055490;28;20389;-81
2024/01/24 06:04:42;;;;;;;3.40;1.00;;;;;;;;;;5055071;28;20377;-81
2024/01/24 06:07:09;;;;;;;1.83;0.87;;;;;;;;;;5037317;28;20911;-81
2024/01/24 06:09:35;;;;;;;2.28;1.00;;;;;;;;;;5055813;28;20843;-81
2024/01/24 06:12:01;;;;;;;3.05;1.10;;;;;;;;;;5056327;28;20396;-81
2024/01/24 06:14:27;;;;;;;2.92;1.10;;;;;;;;;;5055569;28;20385;-81
2024/01/24 06:16:53;;;;;;;2.08;1.13;;;;;;;;;;5055796;28;20390;-81
2024/01/24 06:19:19;;;;;;;3.15;1.63;;;;;;;;;;5055273;28;20405;-81
2024/01/24 06:21:45;;;;;;;2.83;1.20;;;;;;;;;;5055353;28;20427;-81
2024/01/24 06:24:11;;;;;;;2.47;0.98;;;;;;;;;;5057580;28;20852;-82
2024/01/24 06:26:38;;;;;;;1.27;1.00;;;;;;;;;;5058761;28;20377;-81
2024/01/24 06:29:04;;;;;;;2.83;1.13;;;;;;;;;;5057182;28;20410;-81
2024/01/24 06:31:30;;;;;;;1.60;1.20;;;;;;;;;;5056030;28;20844;-81
2024/01/24 06:33:56;;;;;;;3.00;1.13;;;;;;;;;;5055818;28;21171;-81
2024/01/24 06:36:22;;;;;;;2.95;1.02;;;;;;;;;;5057406;28;20389;-80
2024/01/24 06:38:48;;;;;;;3.35;1.17;;;;;;;;;;5073991;28;20429;-81
2024/01/24 06:41:14;;;;;;;2.05;1.10;;;;;;;;;;5076347;28;20456;-81
2024/01/24 06:43:42;;;;;;;2.95;1.00;;;;;;;;;;5076231;28;20860;-81
2024/01/24 06:46:08;;;;;;;3.08;1.08;;;;;;;;;;5076213;28;20378;-80
2024/01/24 06:48:34;;;;;;;1.83;0.95;;;;;;;;;;5076204;28;20807;-81
2024/01/24 06:51:00;;;;;;;2.25;1.23;;;;;;;;;;5076341;28;20423;-81
2024/01/24 06:53:26;;;;;;;1.30;0.90;;;;;;;;;;5077639;28;20384;-81
2024/01/24 06:55:53;;;;;;;2.08;0.90;;;;;;;;;;5076902;28;20425;-80
2024/01/24 06:58:19;;;;;;;1.50;0.88;;;;;;;;;;5077199;28;20372;-80
2024/01/24 07:00:44;;;;;;;1.73;1.08;;;;;;;;;;5075006;28;20958;-81
2024/01/24 07:03:11;;;;;;;1.65;1.02;;;;;;;;;;5075152;28;20379;-81
2024/01/24 07:05:37;;;;;;;2.28;0.93;;;;;;;;;;5074868;28;20372;-79
2024/01/24 07:08:03;;;;;;;1.75;0.90;;;;;;;;;;5074999;28;20764;-80
2024/01/24 07:10:29;;;;;;;3.15;1.05;;;;;;;;;;5074917;28;20399;-80
2024/01/24 07:12:56;;;;;;;2.57;0.93;;;;;;;;;;5077206;28;20853;-80
2024/01/24 07:15:22;;;;;;;2.85;0.80;;;;;;;;;;5077871;28;20820;-80
2024/01/24 07:17:48;;;;;;;2.10;0.70;;;;;;;;;;5077123;28;20902;-80
2024/01/24 07:20:15;;;;;;;2.42;0.80;;;;;;;;;;5077170;28;20429;-80
2024/01/24 07:22:41;;;;;;;1.50;0.80;;;;;;;;;;5076487;28;20947;-80
2024/01/24 07:25:08;;;;;;;2.20;0.80;;;;;;;;;;5075354;28;20422;-80
2024/01/24 07:27:34;;;;;;;3.27;0.70;;;;;;;;;;5074364;28;20376;-80
2024/01/24 07:30:03;;;;;;;2.00;0.90;;;;;;;;;;5075831;28;20383;-81
2024/01/24 07:32:29;;;;;;;2.47;0.90;;;;;;;;;;5079445;28;20384;-80
2024/01/24 07:34:55;;;;;;;1.75;0.70;;;;;;;;;;5074233;28;20379;-80
2024/01/24 07:37:21;;;;;;;2.70;0.93;;;;;;;;;;5073663;28;20383;-80
2024/01/24 07:39:47;;;;;;;1.15;0.70;;;;;;;;;;5074484;28;20417;-80
2024/01/24 07:42:14;;;;;;;1.63;0.70;;;;;;;;;;5074558;28;20425;-80
2024/01/24 07:44:41;;;;;;;2.88;0.82;;;;;;;;;;5073970;28;20376;-80
2024/01/24 07:47:07;;;;;;;2.43;0.70;;;;;;;;;;5073062;28;20473;-80
2024/01/24 07:49:33;;;;;;;1.63;0.90;;;;;;;;;;5073367;28;20387;-81
2024/01/24 07:51:59;;;;;;;2.03;0.60;;;;;;;;;;5072284;28;20411;-80
2024/01/24 07:54:26;;;;;;;2.45;0.80;;;;;;;;;;5055989;28;20377;-80
2024/01/24 07:56:53;;;;;;;1.67;0.80;;;;;;;;;;5053783;28;20897;-80
2024/01/24 07:59:19;;;;;;;1.73;0.80;;;;;;;;;;5053171;28;20440;-80
2024/01/24 08:01:46;;;;;;;2.15;0.70;;;;;;;;;;5034643;28;20871;-80
2024/01/24 08:04:13;;;;;;;2.03;0.90;;;;;;;;;;5053091;28;20713;-80
2024/01/24 08:06:39;;;;;;;1.73;0.80;;;;;;;;;;5053596;28;20385;-81
2024/01/24 08:09:05;;;;;;;1.80;0.90;;;;;;;;;;5053076;28;20945;-81
2024/01/24 08:11:31;;;;;;;1.40;0.80;;;;;;;;;;5052282;28;20476;-81
2024/01/24 08:13:57;;;;;;;1.92;0.70;;;;;;;;;;5052154;28;20395;-81
2024/01/24 08:16:23;;;;;;;2.33;0.70;;;;;;;;;;5052437;28;20478;-81
2024/01/24 08:18:49;;;;;;;1.08;0.60;;;;;;;;;;5051789;28;20388;-81
2024/01/24 08:21:17;;;;;;;1.90;0.77;;;;;;;;;;5052094;28;20374;-80
2024/01/24 08:23:43;;;;;;;1.53;0.60;;;;;;;;;;5052133;28;20381;-81
2024/01/24 08:26:09;;;;;;;2.20;0.60;;;;;;;;;;5051899;28;20770;-81
2024/01/24 08:28:35;;;;;;;1.17;0.60;;;;;;;;;;5067578;28;20399;-80
2024/01/24 08:31:01;;;;;;;1.60;0.80;;;;;;;;;;5072326;28;20376;-80
2024/01/24 08:33:27;;;;;;;1.70;0.70;;;;;;;;;;5072620;28;20826;-81
2024/01/24 08:35:53;;;;;;;2.00;0.80;;;;;;;;;;5072489;28;20441;-81
2024/01/24 08:38:19;;;;;;;1.80;0.80;;;;;;;;;;5072248;28;20375;-81
2024/01/24 08:40:45;;;;;;;2.97;0.88;;;;;;;;;;5071718;28;20418;-81
2024/01/24 08:43:11;;;;;;;1.33;0.70;;;;;;;;;;5072084;28;20442;-81
2024/01/24 08:45:37;;;;;;;1.70;0.80;;;;;;;;;;5071881;28;20397;-81
2024/01/24 08:48:04;;;;;;;2.55;0.80;;;;;;;;;;5071647;28;20380;-81
2024/01/24 08:50:30;;;;;;;1.85;0.98;;;;;;;;;;5072394;28;20380;-81
2024/01/24 08:52:56;;;;;;;1.90;0.70;;;;;;;;;;5075693;28;20934;-81
2024/01/24 08:55:22;;;;;;;1.73;0.80;;;;;;;;;;5076107;28;20379;-81
2024/01/24 08:57:48;;;;;;;1.08;0.70;;;;;;;;;;5075287;28;20406;-81
2024/01/24 09:00:15;;;;;;;1.73;0.77;;;;;;;;;;5074793;28;20461;-81
2024/01/24 09:02:41;;;;;;;1.20;0.60;;;;;;;;;;5075450;28;20437;-81
2024/01/24 09:05:08;;;;;;;0.93;0.55;;;;;;;;;;5074685;28;20372;-81
2024/01/24 09:07:34;;;;;;;1.43;0.80;;;;;;;;;;5067349;28;20400;-81
2024/01/24 09:10:00;;;;;;;1.02;0.50;;;;;;;;;;5060566;28;20857;-80
2024/01/24 09:12:26;;;;;;;1.38;0.50;;;;;;;;;;5055225;28;20383;-81
2024/01/24 09:14:52;;;;;;;2.70;0.50;;;;;;;;;;5071665;28;20433;-81
2024/01/24 09:17:18;;;;;;;0.95;0.50;;;;;;;;;;5071522;28;20437;-80
2024/01/24 09:19:44;;;;;;;0.68;0.30;;;;;;;;;;5071510;28;20407;-81
2024/01/24 09:22:10;;;;;;;1.25;0.50;;;;;;;;;;5071782;28;20446;-81
2024/01/24 09:24:37;;;;;;;1.00;0.50;;;;;;;;;;5071917;28;20376;-81
2024/01/24 09:27:03;;;;;;;1.63;0.60;;;;;;;;;;5072140;28;20821;-81
2024/01/24 09:29:29;;;;;;;1.20;0.67;;;;;;;;;;5071396;28;20492;-81
2024/01/24 09:31:55;;;;;;;1.27;0.50;;;;;;;;;;5071124;28;20838;-81
2024/01/24 09:34:26;;;;;;;1.80;0.80;;;;;;;;;;5071754;28;20388;-81
2024/01/24 09:36:52;;;;;;;2.65;0.60;;;;;;;;;;5071641;28;20391;-81
2024/01/24 09:39:18;;;;;;;1.15;0.50;;;;;;;;;;5071378;28;20396;-81
2024/01/24 09:41:45;;;;;;;1.30;0.52;;;;;;;;;;5073301;28;20863;-81
2024/01/24 09:44:11;;;;;;;0.63;0.50;;;;;;;;;;5055542;28;20373;-81
2024/01/24 09:46:38;;;;;;;1.80;0.70;;;;;;;;;;5072520;28;20784;-81
2024/01/24 09:49:04;;;;;;;1.60;0.68;;;;;;;;;;5073077;28;20387;-81
2024/01/24 09:51:34;;;;;;;0.55;0.30;;;;;;;;;;5059097;28;20377;-81
2024/01/24 09:54:03;;;;;;;0.77;0.35;;;;;;;;;;5053956;28;20854;-81
2024/01/24 09:56:31;;;;;;;1.10;0.40;;;;;;;;;;5056736;28;20723;-81
2024/01/24 09:58:57;;;;;;;1.50;0.50;;;;;;;;;;5055421;28;20385;-81
2024/01/24 10:01:25;;;;;;;0.63;0.30;;;;;;;;;;5055281;28;20496;-81
2024/01/24 10:03:52;;;;;;;0.30;0.30;;;;;;;;;;5055185;28;20487;-81
2024/01/24 10:06:19;;;;;;;0.55;0.30;;;;;;;;;;5055017;28;20873;-81
2024/01/24 10:08:45;;;;;;;0.50;0.40;;;;;;;;;;5054875;28;20472;-81
2024/01/24 10:11:11;;;;;;;0.57;0.30;;;;;;;;;;5054600;28;20484;-81
2024/01/24 10:13:38;;;;;;;0.50;0.32;;;;;;;;;;5055207;28;20381;-81
2024/01/24 10:16:05;;;;;;;0.73;0.40;;;;;;;;;;5054965;28;20451;-81
2024/01/24 10:18:31;;;;;;;0.57;0.40;;;;;;;;;;5055050;28;20377;-81
2024/01/24 10:21:02;;;;;;;1.20;0.30;;;;;;;;;;5054729;28;20409;-81
2024/01/24 10:23:29;;;;;;;0.70;0.40;;;;;;;;;;5055381;28;20827;-81
2024/01/24 10:25:55;;;;;;;0.50;0.40;;;;;;;;;;5045972;28;20376;-81
2024/01/24 10:28:21;;;;;;;0.50;0.40;;;;;;;;;;5074297;28;20435;-81
2024/01/24 10:30:49;;;;;;;0.95;0.60;;;;;;;;;;5074473;28;20392;-81
2024/01/24 10:33:15;;;;;;;0.40;0.40;;;;;;;;;;5075823;28;20430;-81
2024/01/24 10:35:44;;;;;;;0.80;0.40;;;;;;;;;;5075981;28;20392;-81
2024/01/24 10:38:11;;;;;;;0.90;0.38;;;;;;;;;;5074766;28;20525;-80
2024/01/24 10:40:39;;;;;;;0.55;0.50;;;;;;;;;;5074405;28;20479;-80
2024/01/24 10:43:09;;;;;;;0.45;0.30;;;;;;;;;;5075162;28;20394;-80
2024/01/24 10:45:35;;;;;;;0.50;0.50;;;;;;;;;;5075112;28;20382;-81
2024/01/24 10:48:02;;;;;;;0.70;0.50;;;;;;;;;;5073973;28;20380;-81
2024/01/24 10:50:29;;;;;;;0.73;0.30;;;;;;;;;;5074038;28;20424;-80
2024/01/24 10:52:55;;;;;;;1.00;0.40;;;;;;;;;;5073806;28;20376;-81
2024/01/24 10:55:22;;;;;;;0.90;0.40;;;;;;;;;;5073463;28;20400;-80
2024/01/24 10:57:48;;;;;;;0.90;0.37;;;;;;;;;;5073467;28;20408;-80
2024/01/24 11:00:15;;;;;;;0.75;0.43;;;;;;;;;;5073518;28;20399;-80
2024/01/24 11:02:42;;;;;;;0.30;0.30;;;;;;;;;;5073305;28;20392;-80
2024/01/24 11:05:15;;;;;;;1.10;0.30;;;;;;;;;;5073156;28;20780;-80
2024/01/24 11:07:59;;;;;;;0.47;0.28;;;;;;;;;;5072992;28;21030;-80
2024/01/24 11:10:37;;;;;;;0.47;0.30;;;;;;;;;;5073371;28;20387;-80
2024/01/24 11:13:04;;;;;;;0.80;0.30;;;;;;;;;;5053856;28;20456;-80
2024/01/24 11:15:31;;;;;;;0.30;0.30;;;;;;;;;;5053734;28;20898;-80
2024/01/24 11:18:16;;;;;;;0.68;0.30;;;;;;;;;;5053356;28;20389;-81
2024/01/24 11:20:49;;;;;;;0.60;0.30;;;;;;;;;;5053458;28;20417;-81
2024/01/24 11:23:44;;;;;;;0.40;0.30;;;;;;;;;;5053301;28;20427;-81
2024/01/24 11:26:19;;;;;;;0.98;0.32;;;;;;;;;;5053240;28;20381;-81
2024/01/24 11:28:46;;;;;;;0.70;0.40;;;;;;;;;;5053080;28;20398;-81
2024/01/24 11:31:12;;;;;;;0.40;0.25;;;;;;;;;;5053167;28;20442;-81
2024/01/24 11:33:57;;;;;;;0.50;0.40;;;;;;;;;;5053382;28;20874;-80
2024/01/24 11:36:26;;;;;;;0.60;0.30;;;;;;;;;;5053196;28;20376;-80
2024/01/24 11:38:52;;;;;;;0.52;0.30;;;;;;;;;;5053259;28;20424;-80
2024/01/24 11:41:22;;;;;;;0.47;0.30;;;;;;;;;;5053716;28;20535;-80
2024/01/24 11:43:49;;;;;;;0.40;0.30;;;;;;;;;;5053582;28;20384;-80
2024/01/24 11:46:15;;;;;;;0.60;0.32;;;;;;;;;;5053152;28;20766;-80
2024/01/24 11:48:41;;;;;;;0.77;0.50;;;;;;;;;;5053366;28;20427;-80
2024/01/24 11:51:11;;;;;;;0.40;0.38;;;;;;;;;;5035117;28;20413;-80
2024/01/24 11:53:37;;;;;;;0.63;0.30;;;;;;;;;;5052653;28;20451;-80
2024/01/24 11:56:06;;;;;;;1.02;0.20;;;;;;;;;;5052849;28;20389;-80
2024/01/24 11:58:33;;;;;;;0.50;0.25;;;;;;;;;;5052420;28;20405;-80
2024/01/24 12:01:01;;;;;;;0.70;0.22;;;;;;;;;;5055646;28;20810;-80
2024/01/24 12:03:27;;;;;;;0.90;0.50;;;;;;;;;;5055347;28;20385;-80
2024/01/24 12:05:53;;;;;;;0.50;0.43;;;;;;;;;;5055439;28;20423;-80
2024/01/24 12:08:20;;;;;;;1.08;0.30;;;;;;;;;;5037507;28;20416;-80
2024/01/24 12:10:46;;;;;;;0.40;0.20;;;;;;;;;;5055581;28;20385;-80
2024/01/24 12:13:13;;;;;;;0.35;0.20;;;;;;;;;;5055213;28;20373;-80
2024/01/24 12:15:39;;;;;;;0.40;0.30;;;;;;;;;;5054471;28;20381;-80
2024/01/24 12:18:06;;;;;;;0.38;0.20;;;;;;;;;;5054542;28;21067;-81
2024/01/24 12:20:35;;;;;;;0.47;0.30;;;;;;;;;;5053579;28;20472;-80
2024/01/24 12:23:02;;;;;;;0.15;0.15;;;;;;;;;;5053984;28;20389;-80
2024/01/24 12:25:28;;;;;;;0.20;0.20;;;;;;;;;;5054936;28;20376;-80
2024/01/24 12:27:56;;;;;;;0.50;0.20;;;;;;;;;;5056874;28;20515;-80
2024/01/24 12:30:22;;;;;;;0.20;0.20;;;;;;;;;;5074148;28;20384;-81
2024/01/24 12:32:48;;;;;;;0.40;0.20;;;;;;;;;;5075010;28;20895;-80
2024/01/24 12:35:16;;;;;;;0.20;0.20;;;;;;;;;;5075551;28;20379;-80
2024/01/24 12:37:42;;;;;;;0.35;0.20;;;;;;;;;;5074938;28;20474;-80
2024/01/24 12:40:11;;;;;;;0.70;0.33;;;;;;;;;;5074710;28;20886;-81
2024/01/24 12:42:38;;;;;;;0.30;0.30;;;;;;;;;;5075387;28;20387;-80
2024/01/24 12:45:05;;;;;;;1.20;0.50;;;;;;;;;;5075115;28;20375;-80
2024/01/24 12:47:34;;;;;;;0.88;0.40;;;;;;;;;;5074545;28;20380;-80
2024/01/24 12:50:00;;;;;;;0.40;0.20;;;;;;;;;;5074736;28;20388;-80
2024/01/24 12:52:28;;;;;;;0.50;0.20;;;;;;;;;;5074791;28;20383;-81
2024/01/24 12:54:54;;;;;;;0.40;0.20;;;;;;;;;;5075189;28;20880;-80
2024/01/24 12:57:20;;;;;;;0.10;0.10;;;;;;;;;;5074397;28;20391;-81
2024/01/24 12:59:46;;;;;;;0.20;0.20;;;;;;;;;;5074433;28;20687;-81
2024/01/24 13:02:13;;;;;;;0.20;0.20;;;;;;;;;;5074095;28;20380;-80
2024/01/24 13:04:41;;;;;;;0.20;0.20;;;;;;;;;;5073538;28;20442;-80
2024/01/24 13:07:07;;;;;;;0.50;0.30;;;;;;;;;;5075380;28;20458;-81
2024/01/24 13:09:33;;;;;;;0.28;0.28;;;;;;;;;;5074659;28;20387;-80
2024/01/24 13:11:59;;;;;;;0.80;0.20;;;;;;;;;;5074857;28;20386;-80
2024/01/24 13:14:25;;;;;;;1.10;0.25;;;;;;;;;;5073795;28;20383;-81
2024/01/24 13:16:51;;;;;;;0.47;0.25;;;;;;;;;;5073780;28;20384;-81
2024/01/24 13:19:17;;;;;;;0.10;0.10;;;;;;;;;;5073020;28;20809;-81
2024/01/24 13:21:43;;;;;;;0.10;0.10;;;;;;;;;;5074018;28;20379;-81
2024/01/24 13:24:09;;;;;;;0.60;0.20;;;;;;;;;;5073686;28;20382;-81
2024/01/24 13:26:35;;;;;;;0.40;0.30;;;;;;;;;;5074254;28;20376;-81
2024/01/24 13:29:01;;;;;;;0.25;0.20;;;;;;;;;;5076662;28;20418;-81
2024/01/24 13:31:27;;;;;;;0.10;0.10;;;;;;;;;;5078397;28;20462;-81
2024/01/24 13:33:54;;;;;;;0.50;0.13;;;;;;;;;;5077837;28;20388;-81
2024/01/24 13:36:21;;;;;;;0.40;0.20;;;;;;;;;;5077151;28;20420;-81
2024/01/24 13:38:47;;;;;;;0.20;0.10;;;;;;;;;;5078078;28;20770;-81
2024/01/24 13:41:14;;;;;;;0.57;0.30;;;;;;;;;;5078741;28;20445;-81
2024/01/24 13:43:40;;;;;;;0.10;0.10;;;;;;;;;;5077601;28;20368;-81
2024/01/24 13:46:06;;;;;;;0.17;0.13;;;;;;;;;;5077639;28;20418;-81
2024/01/24 13:48:32;;;;;;;0.65;0.28;;;;;;;;;;5077709;28;20776;-81
2024/01/24 13:50:58;;;;;;;1.00;0.40;;;;;;;;;;5077561;28;20433;-81
2024/01/24 13:53:24;;;;;;;0.20;0.20;;;;;;;;;;5060145;28;20384;-81
2024/01/24 13:55:50;;;;;;;0.20;0.20;;;;;;;;;;5057437;28;20707;-81
2024/01/24 13:58:17;;;;;;;0.50;0.20;;;;;;;;;;5058065;28;20408;-81
2024/01/24 14:00:43;;;;;;;0.30;0.20;;;;;;;;;;5066013;28;20402;-81
2024/01/24 14:03:09;;;;;;;0.20;0.10;;;;;;;;;;5055726;28;20400;-81
2024/01/24 14:05:35;;;;;;;0.10;0.10;;;;;;;;;;5055010;28;20464;-81
2024/01/24 14:08:02;;;;;;;0.80;0.10;;;;;;;;;;5054828;28;20381;-81
2024/01/24 14:10:28;;;;;;;0.85;0.15;;;;;;;;;;5054995;28;20423;-81
2024/01/24 14:12:54;;;;;;;0.20;0.20;;;;;;;;;;5054876;28;20393;-80
2024/01/24 14:15:20;;;;;;;0.10;0.10;;;;;;;;;;5055412;28;20378;-81
2024/01/24 14:17:46;;;;;;;0.22;0.20;;;;;;;;;;5036939;28;21247;-81
2024/01/24 14:20:12;;;;;;;0.60;0.10;;;;;;;;;;5055233;28;20406;-81
2024/01/24 14:22:38;;;;;;;0.10;0.10;;;;;;;;;;5054730;28;20388;-81
2024/01/24 14:25:04;;;;;;;0.10;0.10;;;;;;;;;;5056322;28;20384;-81
2024/01/24 14:27:30;;;;;;;0.52;0.22;;;;;;;;;;5067642;28;20380;-81
2024/01/24 14:29:56;;;;;;;0.70;0.28;;;;;;;;;;5075583;28;20390;-81
2024/01/24 14:32:22;;;;;;;0.20;0.20;;;;;;;;;;5075818;28;20379;-81
2024/01/24 14:34:49;;;;;;;0.20;0.10;;;;;;;;;;5076317;28;20387;-81
2024/01/24 14:37:15;;;;;;;0.50;0.30;;;;;;;;;;5076914;28;20881;-81
2024/01/24 14:39:41;;;;;;;0.20;0.20;;;;;;;;;;5074575;28;20395;-81